Time;durP1;ratioP1;P1;durP2;ratioP2;P2;SDS_P1;SDS_P2;PMS_P1;PMS_P2;Temp;Humidity;BMP_temperature;BMP_pressure;BME280_temperature;BME280_humidity;BME280_pressure;Samples;Min_cycle;Max_cycle;Signal;HPM_P1;HPM_P2
2024/01/17 00:00:42;;;;;;;6.57;2.97;;;-2.40;99.90;;;;;;5052938;28;20033;-52
2024/01/17 00:03:08;;;;;;;12.30;4.47;;;-2.40;99.90;;;;;;5053009;28;20021;-51
2024/01/17 00:05:34;;;;;;;10.13;4.00;;;-2.30;99.90;;;;;;5053100;28;20143;-54
2024/01/17 00:08:00;;;;;;;9.57;3.93;;;-2.30;99.90;;;;;;5051695;28;20029;-52
2024/01/17 00:10:26;;;;;;;8.30;3.13;;;-2.30;99.90;;;;;;5052855;28;20036;-54
2024/01/17 00:12:51;;;;;;;9.20;3.53;;;-2.30;99.90;;;;;;5052801;28;20492;-56
2024/01/17 00:15:18;;;;;;;9.53;3.60;;;-2.40;99.90;;;;;;5052871;28;20099;-54
2024/01/17 00:17:46;;;;;;;11.47;3.60;;;-2.40;99.90;;;;;;5052855;28;20402;-52
2024/01/17 00:20:13;;;;;;;9.43;3.87;;;-2.50;99.90;;;;;;5052527;28;20475;-51
2024/01/17 00:22:39;;;;;;;9.40;3.70;;;-2.50;99.90;;;;;;5052553;28;20431;-54
2024/01/17 00:25:06;;;;;;;11.30;4.23;;;-2.40;99.90;;;;;;5053045;28;20451;-52
2024/01/17 00:27:32;;;;;;;10.07;3.63;;;-2.40;99.90;;;;;;5052685;28;20036;-53
2024/01/17 00:29:57;;;;;;;8.37;3.73;;;-2.40;99.90;;;;;;5052490;28;20435;-53
2024/01/17 00:32:26;;;;;;;10.97;3.87;;;-2.50;99.90;;;;;;5052361;28;20043;-55
2024/01/17 00:34:53;;;;;;;8.38;3.45;;;-2.60;99.90;;;;;;5052593;28;20037;-53
2024/01/17 00:37:18;;;;;;;10.40;3.90;;;-2.60;99.90;;;;;;5052419;28;20021;-55
2024/01/17 00:39:45;;;;;;;8.13;3.00;;;-2.50;99.90;;;;;;5052232;28;20463;-55
2024/01/17 00:42:11;;;;;;;9.87;4.13;;;-2.50;99.90;;;;;;5051284;28;21033;-55
2024/01/17 00:44:39;;;;;;;8.53;3.07;;;-2.40;99.90;;;;;;5052380;28;20096;-53
2024/01/17 00:47:05;;;;;;;9.53;4.13;;;-2.40;99.90;;;;;;5052295;28;20029;-55
2024/01/17 00:49:31;;;;;;;11.27;3.67;;;-2.40;99.90;;;;;;5052127;28;20469;-54
2024/01/17 00:51:57;;;;;;;14.10;4.20;;;-2.50;99.90;;;;;;5051970;28;20968;-54
2024/01/17 00:54:23;;;;;;;5.40;2.17;;;-2.50;99.90;;;;;;5052224;28;20482;-55
2024/01/17 00:56:48;;;;;;;10.90;3.17;;;-2.50;99.90;;;;;;5052179;28;20061;-54
2024/01/17 00:59:14;;;;;;;11.90;3.73;;;-2.50;99.90;;;;;;5051883;28;20104;-51
2024/01/17 01:01:40;;;;;;;8.63;3.17;;;-2.50;99.90;;;;;;5051913;28;20500;-52
2024/01/17 01:04:08;;;;;;;8.63;3.27;;;-2.50;99.90;;;;;;5051989;28;20033;-55
2024/01/17 01:06:33;;;;;;;14.60;3.33;;;-2.50;99.90;;;;;;5051965;28;20036;-53
2024/01/17 01:08:59;;;;;;;9.97;3.60;;;-2.50;99.90;;;;;;5051858;28;20435;-52
2024/01/17 01:11:29;;;;;;;7.80;3.13;;;-2.50;99.90;;;;;;5051877;28;20035;-55
2024/01/17 01:13:55;;;;;;;4.13;2.00;;;-2.50;99.90;;;;;;5052067;28;20159;-54
2024/01/17 01:16:20;;;;;;;9.60;3.67;;;-2.60;99.90;;;;;;5051991;28;20907;-53
2024/01/17 01:18:46;;;;;;;13.83;4.03;;;-2.60;99.90;;;;;;5050355;28;20037;-53
2024/01/17 01:21:12;;;;;;;12.17;4.37;;;-2.60;99.90;;;;;;5050372;28;20114;-55
2024/01/17 01:23:37;;;;;;;7.83;3.63;;;-2.60;99.90;;;;;;5051639;28;20072;-54
2024/01/17 01:26:03;;;;;;;10.97;3.73;;;-2.70;99.90;;;;;;5051835;28;20029;-53
2024/01/17 01:28:29;;;;;;;13.93;3.63;;;-2.60;99.90;;;;;;5051715;28;20100;-54
2024/01/17 01:30:54;;;;;;;8.93;3.23;;;-2.60;99.90;;;;;;5051455;28;21059;-54
2024/01/17 01:33:20;;;;;;;9.00;3.70;;;-2.50;99.90;;;;;;5051552;28;20033;-51
2024/01/17 01:35:46;;;;;;;7.83;3.20;;;-2.60;99.90;;;;;;5051666;28;20390;-53
2024/01/17 01:38:12;;;;;;;14.93;3.23;;;-2.60;99.90;;;;;;5051600;28;20446;-51
2024/01/17 01:40:38;;;;;;;11.33;3.47;;;-2.60;99.90;;;;;;5051377;28;20037;-51
2024/01/17 01:43:20;;;;;;;8.40;3.10;;;-2.60;99.90;;;;;;5051547;28;20029;-51
2024/01/17 01:46:10;;;;;;;6.07;3.10;;;-2.60;99.90;;;;;;5051707;28;20029;-51
2024/01/17 01:48:36;;;;;;;7.33;3.17;;;-2.60;99.90;;;;;;5045779;28;20774;-51
2024/01/17 01:51:03;;;;;;;5.50;3.07;;;-2.60;99.90;;;;;;5051274;28;20446;-53
2024/01/17 01:53:30;;;;;;;4.53;2.67;;;-2.60;99.90;;;;;;5052486;28;20465;-53
2024/01/17 01:55:57;;;;;;;8.87;3.77;;;-2.60;99.90;;;;;;5055506;28;20457;-52
2024/01/17 01:58:23;;;;;;;6.63;2.83;;;-2.60;99.90;;;;;;5055321;28;20419;-54
2024/01/17 02:00:50;;;;;;;10.03;3.30;;;-2.60;99.90;;;;;;5055462;28;20495;-52
2024/01/17 02:03:16;;;;;;;7.40;3.33;;;-2.60;99.90;;;;;;5055376;28;20753;-56
2024/01/17 02:05:42;;;;;;;7.40;2.97;;;-2.70;99.90;;;;;;5055351;28;20438;-54
2024/01/17 02:08:08;;;;;;;11.97;2.50;;;-2.60;99.90;;;;;;5055270;28;20078;-52
2024/01/17 02:10:35;;;;;;;7.73;3.33;;;-2.60;99.90;;;;;;5055033;28;20982;-55
2024/01/17 02:13:01;;;;;;;8.97;2.80;;;-2.60;99.90;;;;;;5055148;28;20036;-54
2024/01/17 02:15:27;;;;;;;7.07;2.80;;;-2.60;99.90;;;;;;5055204;28;20463;-53
2024/01/17 02:17:54;;;;;;;7.10;2.67;;;-2.60;99.90;;;;;;5055082;28;20494;-51
2024/01/17 02:20:20;;;;;;;12.07;3.37;;;-2.60;99.90;;;;;;5054805;28;20028;-50
2024/01/17 02:22:45;;;;;;;9.53;2.53;;;-2.50;99.90;;;;;;5054826;28;20967;-51
2024/01/17 02:25:11;;;;;;;9.00;3.37;;;-2.60;99.90;;;;;;5055000;28;20037;-52
2024/01/17 02:27:38;;;;;;;9.00;3.40;;;-2.50;99.90;;;;;;5054956;28;20032;-53
2024/01/17 02:30:06;;;;;;;7.57;2.93;;;-2.50;99.90;;;;;;5053673;28;20324;-52
2024/01/17 02:32:33;;;;;;;12.83;2.93;;;-2.60;99.90;;;;;;5054755;28;20959;-53
2024/01/17 02:34:59;;;;;;;7.80;2.60;;;-2.60;99.90;;;;;;5054776;28;20423;-53
2024/01/17 02:37:25;;;;;;;5.63;3.00;;;-2.60;99.90;;;;;;5053426;28;20537;-53
2024/01/17 02:39:50;;;;;;;9.63;2.90;;;-2.70;99.90;;;;;;5053443;28;20032;-52
2024/01/17 02:42:16;;;;;;;9.60;3.03;;;-2.60;99.90;;;;;;5054476;28;20029;-52
2024/01/17 02:44:41;;;;;;;11.53;3.20;;;-2.60;99.90;;;;;;5054597;28;20043;-52
2024/01/17 02:47:07;;;;;;;7.33;2.93;;;-2.60;99.90;;;;;;5054557;28;20025;-51
2024/01/17 02:49:33;;;;;;;8.27;3.20;;;-2.70;99.90;;;;;;5054342;28;20033;-51
2024/01/17 02:51:58;;;;;;;7.53;3.40;;;-2.60;99.90;;;;;;5054272;28;20124;-52
2024/01/17 02:54:24;;;;;;;6.43;2.50;;;-2.70;99.90;;;;;;5054430;28;20033;-52
2024/01/17 02:56:50;;;;;;;6.43;3.27;;;-2.60;99.90;;;;;;5054346;28;20025;-54
2024/01/17 02:59:15;;;;;;;8.87;3.53;;;-2.50;99.90;;;;;;5054120;28;20037;-51
2024/01/17 03:01:41;;;;;;;6.67;2.70;;;-2.60;99.90;;;;;;5054173;28;20108;-50
2024/01/17 03:04:07;;;;;;;9.73;3.30;;;-2.50;99.90;;;;;;5054141;28;20025;-52
2024/01/17 03:06:32;;;;;;;6.77;3.00;;;-2.40;99.90;;;;;;5053216;28;20060;-51
2024/01/17 03:08:58;;;;;;;6.40;2.33;;;-2.50;99.90;;;;;;5054043;28;20052;-51
2024/01/17 03:11:23;;;;;;;10.83;3.50;;;-2.40;99.90;;;;;;5053876;28;20056;-51
2024/01/17 03:13:50;;;;;;;6.73;2.73;;;-2.50;99.90;;;;;;5054045;28;20025;-52
2024/01/17 03:16:19;;;;;;;6.17;2.97;;;-2.40;99.90;;;;;;5054037;28;20037;-52
2024/01/17 03:18:45;;;;;;;5.53;2.33;;;-2.40;99.90;;;;;;5053734;28;20964;-53
2024/01/17 03:21:10;;;;;;;6.77;3.17;;;-2.40;99.90;;;;;;5053857;28;20779;-51
2024/01/17 03:23:36;;;;;;;7.43;2.87;;;-2.40;99.90;;;;;;5053720;28;20435;-51
2024/01/17 03:26:01;;;;;;;12.13;3.10;;;-2.40;99.90;;;;;;5053779;28;20048;-50
2024/01/17 03:28:27;;;;;;;9.83;3.40;;;-2.50;99.90;;;;;;5053856;28;20059;-52
2024/01/17 03:30:53;;;;;;;6.37;2.80;;;-2.40;99.90;;;;;;5053574;28;20055;-51
2024/01/17 03:33:18;;;;;;;6.27;3.30;;;-2.40;99.90;;;;;;5053591;28;20037;-52
2024/01/17 03:35:44;;;;;;;7.07;3.27;;;-2.30;99.90;;;;;;5053776;28;20021;-52
2024/01/17 03:38:10;;;;;;;6.93;3.07;;;-2.30;99.90;;;;;;5053612;28;20474;-55
2024/01/17 03:40:35;;;;;;;8.77;2.47;;;-2.40;99.90;;;;;;5052133;28;20029;-55
2024/01/17 03:43:01;;;;;;;10.93;3.13;;;-2.30;99.90;;;;;;5053543;28;20381;-53
2024/01/17 03:45:26;;;;;;;7.30;3.13;;;-2.40;99.90;;;;;;5053588;28;20032;-51
2024/01/17 03:47:52;;;;;;;8.57;1.97;;;-2.40;99.90;;;;;;5053399;28;20021;-50
2024/01/17 03:50:18;;;;;;;4.87;2.17;;;-2.40;99.90;;;;;;5053184;28;20029;-55
2024/01/17 03:52:44;;;;;;;7.20;2.03;;;-2.40;99.90;;;;;;5053336;28;20055;-52
2024/01/17 03:55:09;;;;;;;8.30;3.20;;;-2.40;99.90;;;;;;5053298;28;20036;-53
2024/01/17 03:57:35;;;;;;;8.07;2.93;;;-2.40;99.90;;;;;;5053342;28;20021;-51
2024/01/17 04:00:03;;;;;;;6.97;3.00;;;-2.40;99.90;;;;;;5053083;28;20465;-55
2024/01/17 04:02:30;;;;;;;6.93;3.15;;;-2.40;99.90;;;;;;5053136;28;20036;-51
2024/01/17 04:04:56;;;;;;;6.77;2.93;;;-2.40;99.90;;;;;;5053199;28;20390;-51
2024/01/17 04:07:22;;;;;;;5.97;2.57;;;-2.50;99.90;;;;;;5053186;28;20382;-51
2024/01/17 04:09:48;;;;;;;11.20;3.60;;;-2.50;99.90;;;;;;5052883;28;20040;-54
2024/01/17 04:12:14;;;;;;;6.20;2.10;;;-2.50;99.90;;;;;;5052775;28;20435;-53
2024/01/17 04:14:39;;;;;;;8.07;2.73;;;-2.50;99.90;;;;;;5052971;28;20520;-55
2024/01/17 04:17:05;;;;;;;5.27;2.80;;;-2.50;99.90;;;;;;5052641;28;20029;-51
2024/01/17 04:19:30;;;;;;;8.77;3.17;;;-2.50;99.90;;;;;;5052702;28;20082;-55
2024/01/17 04:21:59;;;;;;;4.20;2.33;;;-2.50;99.90;;;;;;5052670;28;20108;-52
2024/01/17 04:24:25;;;;;;;10.60;3.67;;;-2.50;99.90;;;;;;5052479;28;20097;-54
2024/01/17 04:26:53;;;;;;;7.63;3.37;;;-2.50;99.90;;;;;;5052735;28;20107;-50
2024/01/17 04:29:19;;;;;;;4.33;2.20;;;-2.60;99.90;;;;;;5052591;28;20124;-52
2024/01/17 04:31:44;;;;;;;8.77;2.87;;;-2.50;99.90;;;;;;5052521;28;20526;-53
2024/01/17 04:34:10;;;;;;;16.47;2.83;;;-2.50;99.90;;;;;;5052659;28;20497;-54
2024/01/17 04:36:36;;;;;;;5.17;1.93;;;-2.60;99.90;;;;;;5052436;28;20028;-50
2024/01/17 04:39:01;;;;;;;9.47;3.33;;;-2.50;99.90;;;;;;5052263;28;20061;-55
2024/01/17 04:41:27;;;;;;;7.53;3.03;;;-2.60;99.90;;;;;;5052365;28;20017;-51
2024/01/17 04:43:52;;;;;;;6.93;2.83;;;-2.60;99.90;;;;;;5051145;28;20486;-51
2024/01/17 04:46:18;;;;;;;3.57;2.20;;;-2.50;99.90;;;;;;5052327;28;20021;-53
2024/01/17 04:48:45;;;;;;;15.63;3.60;;;-2.50;99.90;;;;;;5052275;28;20501;-55
2024/01/17 04:51:11;;;;;;;9.80;3.43;;;-2.60;99.90;;;;;;5052111;28;20431;-53
2024/01/17 04:53:38;;;;;;;10.37;3.40;;;-2.60;99.90;;;;;;5052083;28;20511;-52
2024/01/17 04:56:05;;;;;;;9.73;3.33;;;-2.60;99.90;;;;;;5050968;28;20523;-53
2024/01/17 04:58:32;;;;;;;7.13;3.57;;;-2.50;99.90;;;;;;5052070;28;20471;-55
2024/01/17 05:00:58;;;;;;;8.97;3.77;;;-2.50;99.90;;;;;;5051867;28;20481;-50
2024/01/17 05:03:23;;;;;;;12.10;3.47;;;-2.50;99.90;;;;;;5051987;28;20431;-54
2024/01/17 05:05:49;;;;;;;12.03;4.13;;;-2.50;99.90;;;;;;5051971;28;20025;-54
2024/01/17 05:08:15;;;;;;;11.30;3.57;;;-2.50;99.90;;;;;;5051948;28;20115;-49
2024/01/17 05:10:44;;;;;;;7.30;2.47;;;-2.60;99.90;;;;;;5052051;28;20044;-53
2024/01/17 05:13:11;;;;;;;10.05;3.42;;;-2.60;99.90;;;;;;5051879;28;20517;-51
2024/01/17 05:15:36;;;;;;;10.57;3.90;;;-2.50;99.90;;;;;;5051835;28;20033;-56
2024/01/17 05:18:04;;;;;;;9.50;4.23;;;-2.60;99.90;;;;;;5051790;28;20431;-55
2024/01/17 05:20:30;;;;;;;13.03;3.87;;;-2.60;99.90;;;;;;5050361;28;20040;-53
2024/01/17 05:22:55;;;;;;;8.23;3.33;;;-2.60;99.90;;;;;;5051627;28;20423;-53
2024/01/17 05:25:21;;;;;;;9.60;3.63;;;-2.60;99.90;;;;;;5051794;28;20112;-52
2024/01/17 05:27:52;;;;;;;14.77;4.53;;;-2.70;99.90;;;;;;5051255;28;20033;-54
2024/01/17 05:30:23;;;;;;;9.53;3.87;;;-2.60;99.90;;;;;;5051467;28;20033;-53
2024/01/17 05:32:50;;;;;;;15.10;3.80;;;-2.60;99.90;;;;;;5051558;28;20431;-53
2024/01/17 05:35:16;;;;;;;11.67;3.57;;;-2.60;99.90;;;;;;5051579;28;20423;-52
2024/01/17 05:37:42;;;;;;;9.67;3.37;;;-2.60;99.90;;;;;;5051729;28;20436;-56
2024/01/17 05:40:09;;;;;;;11.83;3.70;;;-2.70;99.90;;;;;;5051249;28;20397;-52
2024/01/17 05:42:35;;;;;;;10.10;3.53;;;-2.60;99.90;;;;;;5051440;28;20431;-56
2024/01/17 05:45:02;;;;;;;7.73;3.17;;;-2.60;99.90;;;;;;5051753;28;20514;-52
2024/01/17 05:47:28;;;;;;;9.70;4.07;;;-2.50;99.90;;;;;;5051464;28;20424;-55
2024/01/17 05:49:53;;;;;;;9.20;4.10;;;-2.50;99.90;;;;;;5051438;28;20978;-53
2024/01/17 05:52:19;;;;;;;11.40;3.90;;;-2.40;99.90;;;;;;5051760;28;20039;-52
2024/01/17 05:54:44;;;;;;;12.47;4.47;;;-2.40;99.90;;;;;;5051420;28;20079;-54
2024/01/17 05:57:10;;;;;;;7.17;2.97;;;-2.40;99.90;;;;;;5051456;28;20158;-53
2024/01/17 05:59:36;;;;;;;12.40;4.30;;;-2.40;99.90;;;;;;5051274;28;20075;-54
2024/01/17 06:02:01;;;;;;;10.60;3.93;;;-2.40;99.90;;;;;;5051188;28;20402;-55
2024/01/17 06:04:27;;;;;;;10.47;4.33;;;-2.40;99.90;;;;;;5051354;28;20076;-53
2024/01/17 06:06:53;;;;;;;9.00;4.03;;;-2.30;99.90;;;;;;5051378;28;20036;-53
2024/01/17 06:09:19;;;;;;;7.00;3.23;;;-2.30;99.90;;;;;;5051286;28;20025;-53
2024/01/17 06:11:44;;;;;;;7.53;3.50;;;-2.40;99.90;;;;;;5050118;28;20496;-52
2024/01/17 06:14:10;;;;;;;12.67;4.47;;;-2.40;99.90;;;;;;5051185;28;20378;-54
2024/01/17 06:16:35;;;;;;;12.90;4.47;;;-2.40;99.90;;;;;;5051204;28;20036;-52
2024/01/17 06:19:01;;;;;;;10.33;4.17;;;-2.40;99.90;;;;;;5050963;28;20033;-53
2024/01/17 06:21:26;;;;;;;16.70;4.97;;;-2.30;99.90;;;;;;5051096;28;20119;-53
2024/01/17 06:23:53;;;;;;;8.60;3.50;;;-2.30;99.90;;;;;;5051004;28;20029;-55
2024/01/17 06:26:19;;;;;;;16.73;4.83;;;-2.30;99.90;;;;;;5051332;28;20021;-53
2024/01/17 06:28:44;;;;;;;14.80;4.63;;;-2.30;99.90;;;;;;5051024;28;20427;-53
2024/01/17 06:31:10;;;;;;;11.67;4.50;;;-2.30;99.90;;;;;;5050861;28;20423;-51
2024/01/17 06:33:36;;;;;;;9.47;3.57;;;-2.20;99.90;;;;;;5051103;28;20025;-54
2024/01/17 06:36:02;;;;;;;8.23;3.40;;;-2.20;99.90;;;;;;5051529;28;20028;-53
2024/01/17 06:38:27;;;;;;;12.87;3.73;;;-2.20;99.90;;;;;;5051119;28;20029;-57
2024/01/17 06:40:53;;;;;;;10.93;4.10;;;-2.20;99.90;;;;;;5054015;28;20037;-55
2024/01/17 06:43:20;;;;;;;10.10;3.43;;;-2.20;99.90;;;;;;5054667;28;20025;-52
2024/01/17 06:45:46;;;;;;;17.90;3.97;;;-2.20;99.90;;;;;;5054753;28;20025;-54
2024/01/17 06:48:12;;;;;;;12.93;3.67;;;-2.20;99.90;;;;;;5054666;28;20438;-54
2024/01/17 06:50:37;;;;;;;18.27;3.97;;;-2.10;99.90;;;;;;5054414;28;20070;-52
2024/01/17 06:53:03;;;;;;;9.53;3.97;;;-2.20;99.90;;;;;;5054378;28;20112;-53
2024/01/17 06:55:29;;;;;;;9.37;2.87;;;-2.10;99.90;;;;;;5054478;28;20385;-54
2024/01/17 06:57:54;;;;;;;8.87;3.60;;;-2.10;99.90;;;;;;5054389;28;20029;-51
2024/01/17 07:00:20;;;;;;;8.63;3.30;;;-2.10;99.90;;;;;;5054094;28;20382;-57
2024/01/17 07:02:45;;;;;;;13.63;3.60;;;-2.00;99.90;;;;;;5054224;28;20039;-55
2024/01/17 07:05:12;;;;;;;11.70;4.00;;;-2.00;99.90;;;;;;5054411;28;20029;-52
2024/01/17 07:07:40;;;;;;;7.37;3.00;;;-2.10;99.90;;;;;;5054316;28;20033;-55
2024/01/17 07:10:08;;;;;;;7.27;3.07;;;-2.00;99.90;;;;;;5054280;28;20534;-53
2024/01/17 07:12:33;;;;;;;7.70;3.10;;;-2.00;99.90;;;;;;5054070;28;20534;-57
2024/01/17 07:14:59;;;;;;;7.67;3.27;;;-1.90;99.90;;;;;;5054032;28;20531;-54
2024/01/17 07:17:25;;;;;;;9.37;2.53;;;-1.90;99.90;;;;;;5052654;28;20036;-54
2024/01/17 07:19:51;;;;;;;7.03;2.77;;;-2.00;99.90;;;;;;5052394;28;20466;-53
2024/01/17 07:22:16;;;;;;;9.77;3.40;;;-2.00;99.90;;;;;;5053707;28;20111;-53
2024/01/17 07:24:43;;;;;;;9.17;3.13;;;-2.00;99.90;;;;;;5053848;28;20546;-56
2024/01/17 07:27:09;;;;;;;8.93;3.00;;;-2.00;99.90;;;;;;5053868;28;20079;-53
2024/01/17 07:29:35;;;;;;;10.83;4.30;;;-2.00;99.90;;;;;;5053667;28;20443;-56
2024/01/17 07:32:00;;;;;;;14.40;5.60;;;-2.00;99.90;;;;;;5053543;28;20514;-55
2024/01/17 07:34:26;;;;;;;11.33;3.83;;;-1.90;99.90;;;;;;5053788;28;20029;-52
2024/01/17 07:36:52;;;;;;;11.90;4.20;;;-1.90;99.90;;;;;;5053759;28;20402;-52
2024/01/17 07:39:21;;;;;;;15.30;3.87;;;-1.80;99.90;;;;;;5053535;28;20052;-56
2024/01/17 07:41:47;;;;;;;7.60;3.35;;;-1.90;99.90;;;;;;5053500;28;20029;-54
2024/01/17 07:44:14;;;;;;;6.73;3.60;;;-1.90;99.90;;;;;;5053454;28;20032;-54
2024/01/17 07:46:39;;;;;;;8.23;3.03;;;-1.90;99.90;;;;;;5053589;28;20440;-56
2024/01/17 07:49:05;;;;;;;7.83;3.23;;;-1.90;99.90;;;;;;5053408;28;20032;-50
2024/01/17 07:51:31;;;;;;;12.57;3.70;;;-1.90;99.90;;;;;;5052720;28;20056;-55
2024/01/17 07:53:57;;;;;;;9.57;2.77;;;-1.90;99.90;;;;;;5053326;28;20375;-53
2024/01/17 07:56:23;;;;;;;8.43;3.43;;;-1.90;99.90;;;;;;5053337;28;20029;-54
2024/01/17 07:58:52;;;;;;;7.93;3.23;;;-1.80;99.90;;;;;;5053006;28;20846;-53
2024/01/17 08:01:18;;;;;;;8.07;3.60;;;-1.90;99.90;;;;;;5053166;28;20427;-55
2024/01/17 08:03:43;;;;;;;9.37;3.50;;;-1.90;99.90;;;;;;5053064;28;20166;-55
2024/01/17 08:06:09;;;;;;;12.67;3.73;;;-1.80;99.90;;;;;;5053099;28;20048;-57
2024/01/17 08:08:35;;;;;;;10.80;3.57;;;-1.80;99.90;;;;;;5053029;28;20032;-53
2024/01/17 08:11:02;;;;;;;11.20;3.40;;;-1.80;99.90;;;;;;5052839;28;20033;-56
2024/01/17 08:13:28;;;;;;;12.40;3.40;;;-1.80;99.90;;;;;;5052713;28;20039;-54
2024/01/17 08:15:53;;;;;;;11.37;3.77;;;-1.80;99.90;;;;;;5052929;28;20112;-51
2024/01/17 08:18:19;;;;;;;8.10;3.57;;;-1.80;99.90;;;;;;5052929;28;20032;-52
2024/01/17 08:20:46;;;;;;;12.33;3.23;;;-1.80;99.90;;;;;;5052566;28;20048;-52
2024/01/17 08:23:12;;;;;;;8.83;3.17;;;-1.80;99.90;;;;;;5052543;28;20538;-53
2024/01/17 08:25:38;;;;;;;9.30;3.03;;;-1.70;99.90;;;;;;5052668;28;20496;-54
2024/01/17 08:28:04;;;;;;;7.63;3.60;;;-1.70;99.90;;;;;;5052515;28;20029;-53
2024/01/17 08:30:29;;;;;;;8.90;3.80;;;-1.60;99.90;;;;;;5052460;28;20383;-54
2024/01/17 08:32:55;;;;;;;7.87;3.27;;;-1.70;99.90;;;;;;5052450;28;20036;-53
2024/01/17 08:35:20;;;;;;;7.17;3.10;;;-1.60;99.90;;;;;;5052633;28;20055;-53
2024/01/17 08:37:47;;;;;;;9.97;3.70;;;-1.60;99.90;;;;;;5052517;28;20468;-55
2024/01/17 08:40:13;;;;;;;9.70;2.93;;;-1.50;99.90;;;;;;5052255;28;20041;-55
2024/01/17 08:42:39;;;;;;;8.97;3.37;;;-1.50;99.90;;;;;;5052201;28;20470;-53
2024/01/17 08:45:06;;;;;;;8.97;3.87;;;-1.40;99.90;;;;;;5052421;28;20443;-54
2024/01/17 08:47:32;;;;;;;12.43;3.57;;;-1.40;99.90;;;;;;5052415;28;20025;-53
2024/01/17 08:50:00;;;;;;;9.43;3.77;;;-1.40;99.90;;;;;;5052228;28;20076;-54
2024/01/17 08:52:26;;;;;;;8.97;3.73;;;-1.40;99.90;;;;;;5052126;28;20029;-54
2024/01/17 08:54:54;;;;;;;10.97;3.37;;;-1.40;99.90;;;;;;5052202;28;20036;-56
2024/01/17 08:57:20;;;;;;;8.27;3.50;;;-1.40;99.90;;;;;;5052153;28;20028;-52
2024/01/17 08:59:46;;;;;;;6.60;3.63;;;-1.40;99.90;;;;;;5051949;28;20044;-55
2024/01/17 09:02:12;;;;;;;10.37;3.37;;;-1.30;99.90;;;;;;5051888;28;20021;-56
2024/01/17 09:04:37;;;;;;;8.20;2.90;;;-1.20;99.90;;;;;;5051519;28;20033;-51
2024/01/17 09:07:03;;;;;;;10.77;3.90;;;-1.10;99.90;;;;;;5052046;28;20078;-53
2024/01/17 09:09:29;;;;;;;7.70;3.33;;;-1.10;99.90;;;;;;5051927;28;20037;-52
2024/01/17 09:11:54;;;;;;;7.73;3.47;;;-1.10;99.90;;;;;;5051725;28;20036;-52
2024/01/17 09:14:21;;;;;;;7.63;3.17;;;-1.00;99.90;;;;;;5051874;28;20033;-57
2024/01/17 09:16:51;;;;;;;11.13;3.50;;;-1.00;99.90;;;;;;5051897;28;20078;-51
2024/01/17 09:19:17;;;;;;;;;;;-0.90;99.90;;;;;;5052249;28;20037;-54
2024/01/17 09:21:42;;;;;;;8.83;3.50;;;-0.90;99.90;;;;;;5051675;28;19908;-51
2024/01/17 09:24:08;;;;;;;11.27;4.40;;;-0.80;99.90;;;;;;5051809;28;20125;-55
2024/01/17 09:26:34;;;;;;;11.13;3.70;;;-0.70;99.90;;;;;;5051682;28;20477;-55
2024/01/17 09:28:59;;;;;;;9.70;3.30;;;-0.80;99.90;;;;;;5051735;28;20036;-54
2024/01/17 09:31:25;;;;;;;7.83;3.20;;;-0.70;99.90;;;;;;5051662;28;20024;-57
2024/01/17 09:33:50;;;;;;;7.23;3.63;;;-0.70;99.90;;;;;;5051662;28;20397;-56
2024/01/17 09:36:16;;;;;;;10.23;3.70;;;-0.60;99.90;;;;;;5051681;28;20047;-57
2024/01/17 09:38:43;;;;;;;10.20;4.00;;;-0.60;99.90;;;;;;5051403;28;20509;-50
2024/01/17 09:41:09;;;;;;;7.20;3.13;;;-0.50;99.90;;;;;;5051392;28;20032;-53
2024/01/17 09:43:35;;;;;;;10.17;3.40;;;-0.40;99.90;;;;;;5051517;28;20082;-57
2024/01/17 09:46:02;;;;;;;8.10;2.93;;;-0.40;99.90;;;;;;5051616;28;20044;-53
2024/01/17 09:48:29;;;;;;;11.83;4.03;;;-0.40;99.90;;;;;;5051593;28;20498;-56
2024/01/17 09:50:57;;;;;;;8.10;3.30;;;-0.40;99.90;;;;;;5051318;28;20025;-55
2024/01/17 09:53:29;;;;;;;7.23;3.77;;;-0.40;99.90;;;;;;5051419;28;20029;-53
2024/01/17 09:55:59;;;;;;;10.93;3.23;;;-0.40;99.90;;;;;;5051481;28;20033;-53
2024/01/17 09:58:26;;;;;;;;;;;-0.30;99.90;;;;;;5052121;28;20401;-57
2024/01/17 10:00:54;;;;;;;10.07;3.10;;;-0.20;99.90;;;;;;5051133;28;19912;-54
2024/01/17 10:03:21;;;;;;;11.10;3.90;;;-0.20;99.90;;;;;;5051339;28;20036;-53
2024/01/17 10:05:50;;;;;;;13.70;3.73;;;-0.20;99.90;;;;;;5051434;28;20029;-56
2024/01/17 10:08:18;;;;;;;10.60;4.43;;;-0.20;99.90;;;;;;5051364;28;20033;-57
2024/01/17 10:10:44;;;;;;;9.67;3.73;;;-0.20;99.90;;;;;;5051236;28;20036;-56
2024/01/17 10:13:11;;;;;;;10.47;4.03;;;-0.20;99.90;;;;;;5051279;28;20028;-53
2024/01/17 10:15:45;;;;;;;10.10;4.00;;;-0.20;99.90;;;;;;5054136;28;20028;-55
2024/01/17 10:18:12;;;;;;;14.67;3.67;;;-0.20;99.90;;;;;;5055260;28;20086;-53
2024/01/17 10:20:38;;;;;;;8.07;3.50;;;-0.10;99.90;;;;;;5054860;28;20065;-56
2024/01/17 10:23:06;;;;;;;9.27;4.10;;;-0.10;99.90;;;;;;5054886;28;20071;-55
2024/01/17 10:25:40;;;;;;;10.33;3.23;;;0.00;99.90;;;;;;5055052;28;20029;-55
2024/01/17 10:28:06;;;;;;;11.50;3.67;;;0.00;99.90;;;;;;5054925;28;20029;-55
2024/01/17 10:30:32;;;;;;;8.53;3.03;;;0.00;99.90;;;;;;5054858;28;20048;-55
2024/01/17 10:32:58;;;;;;;7.23;3.60;;;0.10;99.90;;;;;;5054746;28;20509;-52
2024/01/17 10:35:24;;;;;;;12.50;4.27;;;0.10;99.90;;;;;;5054844;28;20033;-56
2024/01/17 10:37:53;;;;;;;7.93;3.40;;;0.10;99.90;;;;;;5054832;28;20029;-53
2024/01/17 10:40:19;;;;;;;11.57;3.60;;;0.00;99.90;;;;;;5053337;28;20120;-55
2024/01/17 10:42:45;;;;;;;7.43;3.30;;;0.10;99.90;;;;;;5054664;28;20025;-55
2024/01/17 10:45:22;;;;;;;8.87;3.80;;;0.20;99.90;;;;;;5054666;28;20053;-52
2024/01/17 10:47:48;;;;;;;11.97;4.43;;;0.10;99.90;;;;;;5054595;28;20028;-52
2024/01/17 10:50:17;;;;;;;9.10;3.20;;;0.20;99.90;;;;;;5054404;28;20044;-56
2024/01/17 10:52:47;;;;;;;9.23;3.80;;;0.20;99.90;;;;;;5053243;28;20033;-52
2024/01/17 10:55:14;;;;;;;;;;;0.20;99.90;;;;;;5055033;28;20036;-53
2024/01/17 10:57:44;;;;;;;11.90;3.40;;;0.20;99.90;;;;;;5054471;28;20361;-55
2024/01/17 11:00:17;;;;;;;8.15;3.30;;;0.20;99.90;;;;;;5052896;28;20033;-53
2024/01/17 11:02:43;;;;;;;11.10;3.67;;;0.20;99.90;;;;;;5054423;28;20040;-53
2024/01/17 11:05:15;;;;;;;7.73;3.37;;;0.20;99.90;;;;;;5054329;28;20032;-51
2024/01/17 11:07:41;;;;;;;7.73;2.97;;;0.20;99.90;;;;;;5054366;28;20414;-53
2024/01/17 11:10:09;;;;;;;12.40;3.70;;;0.30;99.90;;;;;;5053971;28;20115;-53
2024/01/17 11:12:39;;;;;;;10.90;4.33;;;0.30;99.90;;;;;;5054057;28;20040;-53
2024/01/17 11:15:05;;;;;;;8.23;2.97;;;0.30;99.90;;;;;;5054415;28;20029;-52
2024/01/17 11:17:36;;;;;;;7.60;3.60;;;0.30;99.90;;;;;;5054165;28;20048;-53
2024/01/17 11:20:08;;;;;;;8.20;3.47;;;0.30;99.90;;;;;;5053925;28;20032;-53
2024/01/17 11:22:38;;;;;;;11.00;4.23;;;0.30;99.90;;;;;;5052568;28;20036;-54
2024/01/17 11:25:13;;;;;;;10.67;4.00;;;0.40;99.90;;;;;;5053759;28;20119;-52
2024/01/17 11:27:50;;;;;;;12.53;4.13;;;0.40;99.90;;;;;;5053065;28;20487;-52
2024/01/17 11:30:28;;;;;;;8.50;3.87;;;0.30;99.90;;;;;;5053687;28;20029;-56
2024/01/17 11:33:06;;;;;;;9.27;3.77;;;0.30;99.90;;;;;;5053757;28;20041;-53
2024/01/17 11:35:46;;;;;;;11.68;3.92;;;0.50;99.90;;;;;;5053823;28;20036;-53
2024/01/17 11:38:12;;;;;;;11.10;4.13;;;0.40;99.90;;;;;;5053658;28;20040;-53
2024/01/17 11:40:40;;;;;;;9.47;4.17;;;0.40;99.90;;;;;;5053417;28;20150;-54
2024/01/17 11:43:07;;;;;;;13.97;3.53;;;0.30;99.90;;;;;;5053851;28;20158;-55
2024/01/17 11:45:33;;;;;;;9.17;3.53;;;0.30;99.90;;;;;;5053566;28;20108;-54
2024/01/17 11:48:11;;;;;;;11.23;3.50;;;0.50;99.90;;;;;;5053380;28;20486;-54
2024/01/17 11:50:38;;;;;;;8.23;3.90;;;0.40;99.90;;;;;;5053345;28;20044;-56
2024/01/17 11:53:03;;;;;;;12.03;4.33;;;0.30;99.90;;;;;;5053265;28;20496;-52
2024/01/17 11:55:32;;;;;;;11.20;3.70;;;0.40;99.90;;;;;;5053347;28;20112;-57
2024/01/17 11:58:00;;;;;;;10.07;4.30;;;0.40;99.90;;;;;;5051983;28;20048;-57
2024/01/17 12:00:27;;;;;;;10.80;3.90;;;0.30;99.90;;;;;;5052891;28;20033;-52
2024/01/17 12:02:54;;;;;;;9.23;3.67;;;0.40;99.90;;;;;;5053088;28;20076;-52
2024/01/17 12:05:20;;;;;;;6.67;2.63;;;0.50;99.90;;;;;;5053132;28;20044;-52
2024/01/17 12:07:49;;;;;;;10.73;3.80;;;0.50;99.90;;;;;;5053096;28;20033;-53
2024/01/17 12:10:15;;;;;;;14.98;4.53;;;0.50;99.90;;;;;;5052883;28;20120;-52
2024/01/17 12:12:45;;;;;;;13.47;3.77;;;0.50;99.90;;;;;;5053024;28;20452;-55
2024/01/17 12:15:11;;;;;;;12.40;4.25;;;0.40;99.90;;;;;;5052984;28;20036;-53
2024/01/17 12:17:38;;;;;;;10.90;4.23;;;0.40;99.90;;;;;;5053050;28;20029;-54
2024/01/17 12:20:07;;;;;;;12.70;4.00;;;0.30;99.90;;;;;;5052842;28;20083;-56
2024/01/17 12:22:34;;;;;;;13.57;4.28;;;0.30;99.90;;;;;;5052717;28;20032;-56
2024/01/17 12:24:59;;;;;;;9.77;3.70;;;0.30;99.90;;;;;;5052727;28;20029;-52
2024/01/17 12:27:30;;;;;;;10.40;4.00;;;0.30;99.90;;;;;;5052752;28;20047;-57
2024/01/17 12:29:57;;;;;;;11.37;4.40;;;0.30;99.90;;;;;;5052640;28;20029;-55
2024/01/17 12:32:23;;;;;;;10.40;4.67;;;0.30;99.90;;;;;;5052464;28;20033;-52
2024/01/17 12:34:49;;;;;;;10.90;4.67;;;0.30;99.90;;;;;;5052639;28;20449;-53
2024/01/17 12:37:15;;;;;;;13.47;4.23;;;0.30;99.90;;;;;;5052459;28;20037;-52
2024/01/17 12:39:41;;;;;;;13.13;4.43;;;0.40;99.90;;;;;;5052472;28;20029;-56
2024/01/17 12:42:07;;;;;;;9.23;4.57;;;0.50;99.90;;;;;;5052382;28;20481;-53